Jiexiu, China
Current Conditions -  °F | °C
As of 7:00 AM on Sunday 21 Dec 2014 (Local Time) from ZBYN Reporting Station
Clear Clear  
Wind Chill:   Ceiling: Unl
Heat Index: 16°   Visibility: 6mi
Dew Point: -13°   Wind: 13mph
Humidity: 27%   Direction: 280°W
Pressure: 30.45"   Gusts: NA
Location:  37.04°N, 111.9°E
Report Text: ZBYN 202300Z 28006MPS CAVOK M09/M25 Q1031 NOSIG
Loading
Personal Weather Stations






























Interactive Weather Map New forecast layout! Learn more

10-Day Weather Forecast

Advertisements
Track Severe Weather on mobile